Time;durP1;ratioP1;P1;durP2;ratioP2;P2;SDS_P1;SDS_P2;PMS_P1;PMS_P2;Temp;Humidity;BMP_temperature;BMP_pressure;BME280_temperature;BME280_humidity;BME280_pressure;Samples;Min_cycle;Max_cycle;Signal;HPM_P1;HPM_P2
2021/01/10 00:00:51;;;;;;;8.23;7.43;;;;;;;;;;5090109;28;20031;-69
2021/01/10 00:03:17;;;;;;;8.90;8.07;;;;;;;;;;5090058;28;20034;-69
2021/01/10 00:05:43;;;;;;;10.77;9.65;;;;;;;;;;5089275;28;20024;-68
2021/01/10 00:08:10;;;;;;;8.93;8.07;;;;;;;;;;5090220;28;20103;-69
2021/01/10 00:10:36;;;;;;;9.13;8.32;;;;;;;;;;5090007;28;20058;-68
2021/01/10 00:13:03;;;;;;;10.65;9.68;;;;;;;;;;5090355;28;20036;-69
2021/01/10 00:15:30;;;;;;;9.43;8.23;;;;;;;;;;5090090;28;20096;-69
2021/01/10 00:17:56;;;;;;;9.27;7.88;;;;;;;;;;5089621;28;20044;-68
2021/01/10 00:20:22;;;;;;;11.50;9.38;;;;;;;;;;5090123;28;20032;-69
2021/01/10 00:22:52;;;;;;;10.32;9.30;;;;;;;;;;5089655;28;20024;-69
2021/01/10 00:25:18;;;;;;;7.60;6.70;;;;;;;;;;5089622;28;20137;-69
2021/01/10 00:27:44;;;;;;;9.15;7.38;;;;;;;;;;5089134;28;20025;-69
2021/01/10 00:30:12;;;;;;;7.35;6.65;;;;;;;;;;5090592;28;20028;-68
2021/01/10 00:32:38;;;;;;;7.80;7.00;;;;;;;;;;5089592;28;20035;-68
2021/01/10 00:35:05;;;;;;;7.25;6.47;;;;;;;;;;5089802;28;20020;-69
2021/01/10 00:37:31;;;;;;;8.35;7.45;;;;;;;;;;5089544;28;20034;-69
2021/01/10 00:39:57;;;;;;;8.45;7.63;;;;;;;;;;5088978;28;20050;-69
2021/01/10 00:42:23;;;;;;;8.85;7.95;;;;;;;;;;5090446;28;20394;-69
2021/01/10 00:44:49;;;;;;;9.45;6.88;;;;;;;;;;5089463;28;20028;-68
2021/01/10 00:47:18;;;;;;;7.18;6.57;;;;;;;;;;5089609;28;20415;-69
2021/01/10 00:49:45;;;;;;;8.80;7.78;;;;;;;;;;5089240;28;20016;-68
2021/01/10 00:52:11;;;;;;;8.75;7.43;;;;;;;;;;5090027;28;20031;-69
2021/01/10 00:54:38;;;;;;;8.00;6.60;;;;;;;;;;5090517;28;20024;-69
2021/01/10 00:57:04;;;;;;;8.82;7.93;;;;;;;;;;5093813;28;20047;-69
2021/01/10 00:59:30;;;;;;;7.38;6.57;;;;;;;;;;5094223;28;20066;-69
2021/01/10 01:01:56;;;;;;;8.15;7.32;;;;;;;;;;5093486;28;20031;-68
2021/01/10 01:04:22;;;;;;;8.30;6.95;;;;;;;;;;5093992;28;20059;-69
2021/01/10 01:06:49;;;;;;;6.07;5.50;;;;;;;;;;5092923;28;20047;-68
2021/01/10 01:09:15;;;;;;;6.88;6.28;;;;;;;;;;5093775;28;20596;-69
2021/01/10 01:11:41;;;;;;;7.90;6.60;;;;;;;;;;5092886;28;20153;-68
2021/01/10 01:14:09;;;;;;;6.82;6.13;;;;;;;;;;5093709;28;20028;-69
2021/01/10 01:16:39;;;;;;;6.20;5.50;;;;;;;;;;5093278;28;20071;-68
2021/01/10 01:19:06;;;;;;;6.68;5.72;;;;;;;;;;5093505;28;20040;-69
2021/01/10 01:21:32;;;;;;;6.30;5.75;;;;;;;;;;5093631;28;20039;-68
2021/01/10 01:23:58;;;;;;;7.05;6.35;;;;;;;;;;5093238;28;20028;-69
2021/01/10 01:26:25;;;;;;;6.57;5.97;;;;;;;;;;5093784;28;20051;-69
2021/01/10 01:28:52;;;;;;;5.65;5.05;;;;;;;;;;5092861;28;20031;-68
2021/01/10 01:31:19;;;;;;;6.30;5.63;;;;;;;;;;5093429;28;20028;-69
2021/01/10 01:33:45;;;;;;;7.05;6.28;;;;;;;;;;5092859;28;20024;-69
2021/01/10 01:36:15;;;;;;;5.47;4.97;;;;;;;;;;5092760;28;20085;-69
2021/01/10 01:38:42;;;;;;;6.55;5.93;;;;;;;;;;5092513;28;20515;-68
2021/01/10 01:41:08;;;;;;;6.78;6.15;;;;;;;;;;5092903;28;20502;-70
2021/01/10 01:43:35;;;;;;;6.45;5.78;;;;;;;;;;5092669;28;20095;-68
2021/01/10 01:46:03;;;;;;;6.55;5.70;;;;;;;;;;5092885;28;20028;-70
2021/01/10 01:48:29;;;;;;;6.60;6.00;;;;;;;;;;5093343;28;20452;-70
2021/01/10 01:50:59;;;;;;;5.35;4.85;;;;;;;;;;5092575;28;20062;-69
2021/01/10 01:53:26;;;;;;;6.63;4.93;;;;;;;;;;5093083;28;20078;-70
2021/01/10 01:55:57;;;;;;;6.00;5.47;;;;;;;;;;5092573;28;20486;-70
2021/01/10 01:58:23;;;;;;;6.82;5.80;;;;;;;;;;5092853;28;20122;-70
2021/01/10 02:00:49;;;;;;;6.35;5.75;;;;;;;;;;5092033;28;20024;-70
2021/01/10 02:03:31;;;;;;;5.57;5.07;;;;;;;;;;5092764;28;20512;-70
2021/01/10 02:05:59;;;;;;;7.13;5.80;;;;;;;;;;5091335;28;20042;-70
2021/01/10 02:08:28;;;;;;;5.80;5.20;;;;;;;;;;5092664;28;20039;-70
2021/01/10 02:10:58;;;;;;;5.43;4.93;;;;;;;;;;5091814;28;20032;-70
2021/01/10 02:13:24;;;;;;;6.28;5.68;;;;;;;;;;5092604;28;20024;-70
2021/01/10 02:15:53;;;;;;;5.95;5.45;;;;;;;;;;5091801;28;20055;-70
2021/01/10 02:18:20;;;;;;;6.28;5.78;;;;;;;;;;5092139;28;20482;-70
2021/01/10 02:20:46;;;;;;;5.70;5.15;;;;;;;;;;5091886;28;20035;-70
2021/01/10 02:23:22;;;;;;;5.00;4.50;;;;;;;;;;5092283;28;20039;-70
2021/01/10 02:25:50;;;;;;;4.60;4.15;;;;;;;;;;5091699;28;20035;-69
2021/01/10 02:28:19;;;;;;;4.80;4.40;;;;;;;;;;5092146;28;20424;-70
2021/01/10 02:30:45;;;;;;;5.53;4.75;;;;;;;;;;5091800;28;20111;-69
2021/01/10 02:33:38;;;;;;;4.07;3.72;;;;;;;;;;5091882;28;20067;-70
2021/01/10 02:36:07;;;;;;;6.03;5.40;;;;;;;;;;5089729;28;20036;-70
2021/01/10 02:38:35;;;;;;;5.40;4.90;;;;;;;;;;5091591;28;20032;-69
2021/01/10 02:41:04;;;;;;;5.40;4.90;;;;;;;;;;5091690;28;20482;-70
2021/01/10 02:43:31;;;;;;;6.53;5.90;;;;;;;;;;5091877;28;20036;-70
2021/01/10 02:45:59;;;;;;;6.22;5.63;;;;;;;;;;5091319;28;20495;-69
2021/01/10 02:48:26;;;;;;;6.43;5.55;;;;;;;;;;5091780;28;20035;-69
2021/01/10 02:50:52;;;;;;;5.88;5.30;;;;;;;;;;5090502;28;20166;-69
2021/01/10 02:53:18;;;;;;;5.10;4.60;;;;;;;;;;5091506;28;20024;-70
2021/01/10 02:55:44;;;;;;;5.97;5.38;;;;;;;;;;5090779;28;20029;-69
2021/01/10 02:58:19;;;;;;;5.63;4.80;;;;;;;;;;5091573;28;20111;-69
2021/01/10 03:00:47;;;;;;;5.47;4.95;;;;;;;;;;5090602;28;20023;-69
2021/01/10 03:03:13;;;;;;;5.28;4.65;;;;;;;;;;5091433;28;20039;-69
2021/01/10 03:05:40;;;;;;;5.70;5.13;;;;;;;;;;5090209;28;20035;-69
2021/01/10 03:08:06;;;;;;;6.18;5.35;;;;;;;;;;5091807;28;20407;-70
2021/01/10 03:10:32;;;;;;;5.30;4.82;;;;;;;;;;5091085;28;20034;-69
2021/01/10 03:12:58;;;;;;;6.57;5.90;;;;;;;;;;5090960;28;20043;-69
2021/01/10 03:15:25;;;;;;;7.80;5.25;;;;;;;;;;5091275;28;20036;-70
2021/01/10 03:17:51;;;;;;;4.43;4.13;;;;;;;;;;5089357;28;20139;-70
2021/01/10 03:20:18;;;;;;;5.90;4.85;;;;;;;;;;5091510;28;20115;-70
2021/01/10 03:22:45;;;;;;;6.63;5.50;;;;;;;;;;5091053;28;20048;-70
2021/01/10 03:25:12;;;;;;;4.68;4.28;;;;;;;;;;5091253;28;20378;-70
2021/01/10 03:27:38;;;;;;;5.90;4.97;;;;;;;;;;5090027;28;20035;-69
2021/01/10 03:30:09;;;;;;;4.18;3.88;;;;;;;;;;5091121;28;20032;-70
2021/01/10 03:32:35;;;;;;;5.63;4.78;;;;;;;;;;5090485;28;20032;-69
2021/01/10 03:35:01;;;;;;;5.03;4.53;;;;;;;;;;5090091;28;20483;-69
2021/01/10 03:37:27;;;;;;;4.57;3.85;;;;;;;;;;5090359;28;20509;-70
2021/01/10 03:39:53;;;;;;;6.50;5.90;;;;;;;;;;5089840;28;20055;-70
2021/01/10 03:42:21;;;;;;;5.50;4.53;;;;;;;;;;5090840;28;20036;-70
2021/01/10 03:44:47;;;;;;;5.68;5.13;;;;;;;;;;5089610;28;20111;-69
2021/01/10 03:47:13;;;;;;;6.43;5.82;;;;;;;;;;5090823;28;20397;-70
2021/01/10 03:49:39;;;;;;;5.57;5.07;;;;;;;;;;5090045;28;20034;-69
2021/01/10 03:52:06;;;;;;;5.13;4.63;;;;;;;;;;5090806;28;20028;-69
2021/01/10 03:54:32;;;;;;;4.07;3.72;;;;;;;;;;5090111;28;20035;-69
2021/01/10 03:56:58;;;;;;;5.45;5.05;;;;;;;;;;5090104;28;20154;-70
2021/01/10 03:59:24;;;;;;;4.60;4.20;;;;;;;;;;5090750;28;20040;-70
2021/01/10 04:01:50;;;;;;;5.13;4.63;;;;;;;;;;5090048;28;20413;-70
2021/01/10 04:04:16;;;;;;;4.50;4.10;;;;;;;;;;5090183;28;20035;-70
2021/01/10 04:06:42;;;;;;;5.55;5.05;;;;;;;;;;5089778;28;20111;-69
2021/01/10 04:09:08;;;;;;;6.25;5.72;;;;;;;;;;5090666;28;20032;-69
2021/01/10 04:11:34;;;;;;;6.18;5.55;;;;;;;;;;5090442;28;20156;-69
2021/01/10 04:14:00;;;;;;;4.65;4.25;;;;;;;;;;5090328;28;20818;-69
2021/01/10 04:16:26;;;;;;;5.13;4.63;;;;;;;;;;5090194;28;20327;-70
2021/01/10 04:18:52;;;;;;;6.43;5.22;;;;;;;;;;5089548;28;20109;-70
2021/01/10 04:21:18;;;;;;;5.50;5.00;;;;;;;;;;5090308;28;20028;-69
2021/01/10 04:23:45;;;;;;;5.43;4.97;;;;;;;;;;5089709;28;20120;-69
2021/01/10 04:26:11;;;;;;;4.93;4.45;;;;;;;;;;5089980;28;20031;-70
2021/01/10 04:28:37;;;;;;;5.60;4.30;;;;;;;;;;5088967;28;20138;-69
2021/01/10 04:31:03;;;;;;;5.40;4.95;;;;;;;;;;5090371;28;20020;-70
2021/01/10 04:33:34;;;;;;;7.78;5.88;;;;;;;;;;5089998;28;20208;-70
2021/01/10 04:36:00;;;;;;;4.57;4.25;;;;;;;;;;5089560;28;20024;-70
2021/01/10 04:38:26;;;;;;;5.50;4.50;;;;;;;;;;5089652;28;20042;-70
2021/01/10 04:40:52;;;;;;;4.07;3.70;;;;;;;;;;5089264;28;20639;-69
2021/01/10 04:43:19;;;;;;;5.03;4.63;;;;;;;;;;5089760;28;20058;-70
2021/01/10 04:45:46;;;;;;;5.30;4.70;;;;;;;;;;5089049;28;20031;-69
2021/01/10 04:48:12;;;;;;;4.13;3.72;;;;;;;;;;5090054;28;20023;-70
2021/01/10 04:50:38;;;;;;;5.15;4.68;;;;;;;;;;5089158;28;20035;-69
2021/01/10 04:53:05;;;;;;;5.75;5.25;;;;;;;;;;5090464;28;20077;-70
2021/01/10 04:55:31;;;;;;;4.50;4.20;;;;;;;;;;5089800;28;20112;-70
2021/01/10 04:58:02;;;;;;;4.75;4.28;;;;;;;;;;5089364;28;21245;-69
2021/01/10 05:00:28;;;;;;;4.68;4.25;;;;;;;;;;5089709;28;20083;-70
2021/01/10 05:02:55;;;;;;;4.70;3.97;;;;;;;;;;5089428;28;20039;-70
2021/01/10 05:05:23;;;;;;;6.13;5.32;;;;;;;;;;5088845;28;20024;-70
2021/01/10 05:07:49;;;;;;;4.18;3.80;;;;;;;;;;5089270;28;20548;-70
2021/01/10 05:10:15;;;;;;;5.85;5.25;;;;;;;;;;5089704;28;20510;-70
2021/01/10 05:12:41;;;;;;;5.07;4.63;;;;;;;;;;5088892;28;20020;-70
2021/01/10 05:15:07;;;;;;;5.68;4.97;;;;;;;;;;5089628;28;20032;-70
2021/01/10 05:17:34;;;;;;;5.68;5.18;;;;;;;;;;5088902;28;20024;-70
2021/01/10 05:20:01;;;;;;;5.18;4.70;;;;;;;;;;5089398;28;20117;-70
2021/01/10 05:22:27;;;;;;;3.75;3.45;;;;;;;;;;5089786;28;20024;-70
2021/01/10 05:24:53;;;;;;;5.68;5.07;;;;;;;;;;5089123;28;20028;-70
2021/01/10 05:27:19;;;;;;;5.90;5.15;;;;;;;;;;5089397;28;20062;-70
2021/01/10 05:29:46;;;;;;;5.00;4.50;;;;;;;;;;5088881;28;20138;-70
2021/01/10 05:32:13;;;;;;;5.85;4.80;;;;;;;;;;5089421;28;20065;-70
2021/01/10 05:34:39;;;;;;;5.65;4.43;;;;;;;;;;5088758;28;20393;-69
2021/01/10 05:37:14;;;;;;;5.30;4.82;;;;;;;;;;5089784;28;20052;-70
2021/01/10 05:39:45;;;;;;;4.80;4.40;;;;;;;;;;5088305;28;20167;-69
2021/01/10 05:42:11;;;;;;;4.85;4.15;;;;;;;;;;5091455;28;20482;-70
2021/01/10 05:44:40;;;;;;;4.50;4.10;;;;;;;;;;5092470;28;20024;-69
2021/01/10 05:47:08;;;;;;;7.20;5.47;;;;;;;;;;5092709;28;20552;-70
2021/01/10 05:49:34;;;;;;;4.47;4.07;;;;;;;;;;5092427;28;20024;-69
2021/01/10 05:52:07;;;;;;;4.45;4.05;;;;;;;;;;5093027;28;20102;-70
2021/01/10 05:54:36;;;;;;;5.10;4.60;;;;;;;;;;5092425;28;20078;-69
2021/01/10 05:57:04;;;;;;;3.80;3.50;;;;;;;;;;5092985;28;20028;-70
2021/01/10 05:59:30;;;;;;;4.85;4.45;;;;;;;;;;5092835;28;20123;-70
2021/01/10 06:01:57;;;;;;;4.88;4.45;;;;;;;;;;5092432;28;20473;-70
2021/01/10 06:04:24;;;;;;;4.30;3.90;;;;;;;;;;5092542;28;20036;-70
2021/01/10 06:06:50;;;;;;;4.18;3.72;;;;;;;;;;5092201;28;20115;-69
2021/01/10 06:09:16;;;;;;;3.88;3.58;;;;;;;;;;5092506;28;20035;-70
2021/01/10 06:11:42;;;;;;;4.57;4.18;;;;;;;;;;5092471;28;20067;-69
2021/01/10 06:14:11;;;;;;;4.97;4.47;;;;;;;;;;5092644;28;20024;-70
2021/01/10 06:16:38;;;;;;;4.03;3.67;;;;;;;;;;5092603;28;20036;-70
2021/01/10 06:19:08;;;;;;;4.15;3.70;;;;;;;;;;5091785;28;20404;-70
2021/01/10 06:21:35;;;;;;;5.85;4.65;;;;;;;;;;5092196;28;20027;-69
2021/01/10 06:24:01;;;;;;;4.32;4.03;;;;;;;;;;5092249;28;20060;-70
2021/01/10 06:26:28;;;;;;;4.90;4.22;;;;;;;;;;5092801;28;20466;-70
2021/01/10 06:29:01;;;;;;;3.42;3.13;;;;;;;;;;5091532;28;20067;-70
2021/01/10 06:31:27;;;;;;;5.53;4.30;;;;;;;;;;5092237;28;20027;-70
2021/01/10 06:33:57;;;;;;;4.20;3.80;;;;;;;;;;5091331;28;20202;-70
2021/01/10 06:36:24;;;;;;;5.53;5.03;;;;;;;;;;5091759;28;20115;-70
2021/01/10 06:38:58;;;;;;;4.63;4.25;;;;;;;;;;5091179;28;20036;-70
2021/01/10 06:41:24;;;;;;;;;;;;;;;;;;5092438;28;20055;-70
2021/01/10 06:43:52;;;;;;;5.72;4.63;;;;;;;;;;5091435;28;20290;-70
2021/01/10 06:46:19;;;;;;;4.68;4.25;;;;;;;;;;5091819;28;20028;-70
2021/01/10 06:48:45;;;;;;;5.00;4.60;;;;;;;;;;5091641;28;20031;-70
2021/01/10 06:51:14;;;;;;;4.93;4.53;;;;;;;;;;5091605;28;20036;-70
2021/01/10 06:53:40;;;;;;;5.57;4.43;;;;;;;;;;5091128;28;20030;-70
2021/01/10 06:56:06;;;;;;;4.95;4.55;;;;;;;;;;5092321;28;20055;-70
2021/01/10 06:58:32;;;;;;;4.28;3.92;;;;;;;;;;5091651;28;20039;-70
2021/01/10 07:00:59;;;;;;;4.65;4.22;;;;;;;;;;5091308;28;20479;-70
2021/01/10 07:03:26;;;;;;;4.57;4.18;;;;;;;;;;5091848;28;20031;-70
2021/01/10 07:06:02;;;;;;;3.88;3.40;;;;;;;;;;5090302;28;20032;-70
2021/01/10 07:08:40;;;;;;;5.63;5.13;;;;;;;;;;5091158;28;20103;-70
2021/01/10 07:11:22;;;;;;;4.97;4.15;;;;;;;;;;5091456;28;20052;-70
2021/01/10 07:13:48;;;;;;;4.15;3.85;;;;;;;;;;5090797;28;20020;-70
2021/01/10 07:16:21;;;;;;;6.18;5.40;;;;;;;;;;5091753;28;20027;-70
2021/01/10 07:19:03;;;;;;;4.63;4.20;;;;;;;;;;5090527;28;20444;-70
2021/01/10 07:21:30;;;;;;;5.30;4.25;;;;;;;;;;5090875;28;20032;-70
2021/01/10 07:24:19;;;;;;;4.25;3.83;;;;;;;;;;5090254;28;20281;-70
2021/01/10 07:26:45;;;;;;;4.30;3.97;;;;;;;;;;5090266;28;20039;-69
2021/01/10 07:29:27;;;;;;;5.05;4.05;;;;;;;;;;5089527;28;20035;-70
2021/01/10 07:31:54;;;;;;;4.78;4.38;;;;;;;;;;5088435;28;20874;-70
2021/01/10 07:34:20;;;;;;;5.00;4.57;;;;;;;;;;5088306;28;20084;-70
2021/01/10 07:36:47;;;;;;;4.13;3.50;;;;;;;;;;5088095;28;20031;-69
2021/01/10 07:39:14;;;;;;;4.97;4.22;;;;;;;;;;5087833;28;20032;-70
2021/01/10 07:41:41;;;;;;;5.32;4.82;;;;;;;;;;5087895;28;20035;-70
2021/01/10 07:44:07;;;;;;;4.55;4.15;;;;;;;;;;5087597;28;20032;-70
2021/01/10 07:46:52;;;;;;;3.88;3.45;;;;;;;;;;5088180;28;20473;-69
2021/01/10 07:49:44;;;;;;;4.78;4.25;;;;;;;;;;5088784;28;20127;-70
2021/01/10 07:52:10;;;;;;;3.75;3.45;;;;;;;;;;5072730;28;20036;-70
2021/01/10 07:54:53;;;;;;;4.72;4.32;;;;;;;;;;5086602;28;20039;-70
2021/01/10 07:57:28;;;;;;;5.50;3.85;;;;;;;;;;5088829;28;20386;-70
2021/01/10 08:00:11;;;;;;;4.72;4.32;;;;;;;;;;5087026;28;20089;-70
2021/01/10 08:02:50;;;;;;;3.80;3.50;;;;;;;;;;5087774;28;20062;-70
2021/01/10 08:05:17;;;;;;;4.68;4.28;;;;;;;;;;5085906;28;20115;-70
2021/01/10 08:07:50;;;;;;;4.50;4.07;;;;;;;;;;5087533;28;20035;-70
2021/01/10 08:10:17;;;;;;;4.93;3.92;;;;;;;;;;5087976;28;20020;-70
2021/01/10 08:12:43;;;;;;;4.05;3.65;;;;;;;;;;5087764;28;20042;-70
2021/01/10 08:15:11;;;;;;;4.00;3.70;;;;;;;;;;5087337;28;20049;-70
2021/01/10 08:17:37;;;;;;;5.20;4.20;;;;;;;;;;5086851;28;20322;-70
2021/01/10 08:20:07;;;;;;;5.57;5.05;;;;;;;;;;5088083;28;20382;-70
2021/01/10 08:22:34;;;;;;;4.20;3.85;;;;;;;;;;5087444;28;20024;-69
2021/01/10 08:25:00;;;;;;;4.13;3.67;;;;;;;;;;5087084;28;20032;-70
2021/01/10 08:27:26;;;;;;;4.97;4.30;;;;;;;;;;5085924;28;20027;-70
2021/01/10 08:29:53;;;;;;;4.22;3.83;;;;;;;;;;5086073;28;20421;-70
2021/01/10 08:32:20;;;;;;;4.53;4.00;;;;;;;;;;5088178;28;20024;-70
2021/01/10 08:34:47;;;;;;;4.70;4.30;;;;;;;;;;5085642;28;20040;-70
2021/01/10 08:37:14;;;;;;;3.83;3.53;;;;;;;;;;5087299;28;20032;-70
2021/01/10 08:39:40;;;;;;;4.57;4.15;;;;;;;;;;5085952;28;20058;-69
2021/01/10 08:42:06;;;;;;;4.10;3.67;;;;;;;;;;5088106;28;20081;-70
2021/01/10 08:44:33;;;;;;;4.18;3.45;;;;;;;;;;5086980;28;20028;-70
2021/01/10 08:46:59;;;;;;;4.15;3.85;;;;;;;;;;5087016;28;20040;-70
2021/01/10 08:49:26;;;;;;;4.43;3.83;;;;;;;;;;5087792;28;20032;-71
2021/01/10 08:51:53;;;;;;;4.80;4.40;;;;;;;;;;5086434;28;20040;-70
2021/01/10 08:54:20;;;;;;;6.55;5.22;;;;;;;;;;5087461;28;20028;-70
2021/01/10 08:56:49;;;;;;;6.72;5.35;;;;;;;;;;5087155;28;20603;-70
2021/01/10 08:59:18;;;;;;;4.88;4.47;;;;;;;;;;5086601;28;20031;-70
2021/01/10 09:01:44;;;;;;;4.35;3.95;;;;;;;;;;5084381;28;20027;-70
2021/01/10 09:04:11;;;;;;;5.03;4.53;;;;;;;;;;5086255;28;20021;-70
2021/01/10 09:06:55;;;;;;;5.05;4.55;;;;;;;;;;5084975;28;20035;-69
2021/01/10 09:09:40;;;;;;;5.90;5.30;;;;;;;;;;5085972;28;20028;-70
2021/01/10 09:12:09;;;;;;;5.97;5.45;;;;;;;;;;5086721;28;20062;-70
2021/01/10 09:14:44;;;;;;;4.53;4.13;;;;;;;;;;5085490;28;20059;-69
2021/01/10 09:17:11;;;;;;;3.78;3.47;;;;;;;;;;5090157;28;20034;-70
2021/01/10 09:19:37;;;;;;;4.45;4.05;;;;;;;;;;5089717;28;20112;-70
2021/01/10 09:22:04;;;;;;;4.45;4.05;;;;;;;;;;5090552;28;20024;-70
2021/01/10 09:24:31;;;;;;;3.78;3.47;;;;;;;;;;5090111;28;20059;-70
2021/01/10 09:27:08;;;;;;;5.00;4.60;;;;;;;;;;5090130;28;20032;-70
2021/01/10 09:29:34;;;;;;;5.00;4.50;;;;;;;;;;5090145;28;20032;-69
2021/01/10 09:32:00;;;;;;;8.05;5.03;;;;;;;;;;5090401;28;20441;-70
2021/01/10 09:34:27;;;;;;;4.85;4.35;;;;;;;;;;5088848;28;20063;-70
2021/01/10 09:37:06;;;;;;;4.70;4.25;;;;;;;;;;5088793;28;20569;-70
2021/01/10 09:39:39;;;;;;;4.05;3.65;;;;;;;;;;5089711;28;20044;-69
2021/01/10 09:42:05;;;;;;;4.63;4.22;;;;;;;;;;5091084;28;20028;-69
2021/01/10 09:44:32;;;;;;;3.45;3.15;;;;;;;;;;5089897;28;20434;-69
2021/01/10 09:46:59;;;;;;;5.93;5.20;;;;;;;;;;5091198;28;20089;-70
2021/01/10 09:49:29;;;;;;;4.80;4.35;;;;;;;;;;5090783;28;20102;-70
2021/01/10 09:52:03;;;;;;;4.78;3.63;;;;;;;;;;5088984;28;20036;-70
2021/01/10 09:54:30;;;;;;;3.20;2.90;;;;;;;;;;5089980;28;20035;-70
2021/01/10 09:56:59;;;;;;;3.67;3.33;;;;;;;;;;5089363;28;20543;-70
2021/01/10 09:59:41;;;;;;;4.45;4.03;;;;;;;;;;5090185;28;20071;-70
2021/01/10 10:02:12;;;;;;;3.55;3.25;;;;;;;;;;5089168;28;20474;-70
2021/01/10 10:04:38;;;;;;;3.35;3.15;;;;;;;;;;5087434;28;20315;-70
2021/01/10 10:07:05;;;;;;;4.10;3.33;;;;;;;;;;5090470;28;20549;-70
2021/01/10 10:09:50;;;;;;;3.08;2.88;;;;;;;;;;5089730;28;20043;-70
2021/01/10 10:12:16;;;;;;;3.70;3.13;;;;;;;;;;5090867;28;20466;-70
2021/01/10 10:14:51;;;;;;;3.63;3.38;;;;;;;;;;5088891;28;20028;-70
2021/01/10 10:17:18;;;;;;;2.92;2.53;;;;;;;;;;5090224;28;20049;-70
2021/01/10 10:19:44;;;;;;;2.83;2.63;;;;;;;;;;5089842;28;20036;-70
2021/01/10 10:22:21;;;;;;;3.28;2.90;;;;;;;;;;5089940;28;20026;-70
2021/01/10 10:24:47;;;;;;;3.10;2.80;;;;;;;;;;5088177;28;20040;-70
2021/01/10 10:27:13;;;;;;;2.80;2.60;;;;;;;;;;5088658;28;20077;-70
2021/01/10 10:29:39;;;;;;;3.30;3.03;;;;;;;;;;5089862;28;20028;-70
2021/01/10 10:32:06;;;;;;;2.75;2.42;;;;;;;;;;5089961;28;20082;-70
2021/01/10 10:34:32;;;;;;;2.72;2.53;;;;;;;;;;5087907;28;20042;-69
2021/01/10 10:36:59;;;;;;;3.08;2.78;;;;;;;;;;5089616;28;20043;-70
2021/01/10 10:39:25;;;;;;;3.65;3.17;;;;;;;;;;5089405;28;20478;-70
2021/01/10 10:41:52;;;;;;;3.35;3.05;;;;;;;;;;5088376;28;20097;-70
2021/01/10 10:44:18;;;;;;;2.67;2.50;;;;;;;;;;5088199;28;20104;-70
2021/01/10 10:46:45;;;;;;;3.30;2.97;;;;;;;;;;5089395;28;20024;-70
2021/01/10 10:49:11;;;;;;;2.65;2.45;;;;;;;;;;5088652;28;20479;-70
2021/01/10 10:51:37;;;;;;;3.13;2.88;;;;;;;;;;5089503;28;20028;-69
2021/01/10 10:54:03;;;;;;;2.83;2.63;;;;;;;;;;5089051;28;20024;-70
2021/01/10 10:56:36;;;;;;;2.17;2.03;;;;;;;;;;5088871;28;20394;-70
2021/01/10 10:59:02;;;;;;;3.17;2.87;;;;;;;;;;5088955;28;20028;-70
2021/01/10 11:01:49;;;;;;;3.05;2.75;;;;;;;;;;5089516;28;20077;-70
2021/01/10 11:04:15;;;;;;;2.67;2.47;;;;;;;;;;5088866;28;20036;-70
2021/01/10 11:06:42;;;;;;;3.88;3.58;;;;;;;;;;5087233;28;20103;-70
2021/01/10 11:09:09;;;;;;;2.67;2.47;;;;;;;;;;5088916;28;20138;-70
2021/01/10 11:11:38;;;;;;;3.28;2.90;;;;;;;;;;5089552;28;20035;-70
2021/01/10 11:14:05;;;;;;;3.33;3.03;;;;;;;;;;5088655;28;20020;-70
2021/01/10 11:16:34;;;;;;;2.88;2.70;;;;;;;;;;5088726;28;20028;-70
2021/01/10 11:19:00;;;;;;;2.33;2.13;;;;;;;;;;5088263;28;20044;-70
2021/01/10 11:21:30;;;;;;;4.07;2.65;;;;;;;;;;5088667;28;20028;-70
2021/01/10 11:23:57;;;;;;;2.47;2.28;;;;;;;;;;5088191;28;20027;-71
2021/01/10 11:26:23;;;;;;;3.03;2.72;;;;;;;;;;5088431;28;20020;-70
2021/01/10 11:28:49;;;;;;;3.22;2.58;;;;;;;;;;5086479;28;20074;-70
2021/01/10 11:31:19;;;;;;;3.97;3.67;;;;;;;;;;5087926;28;20024;-70
2021/01/10 11:33:45;;;;;;;3.05;2.78;;;;;;;;;;5087903;28;20024;-70
2021/01/10 11:36:11;;;;;;;3.13;2.83;;;;;;;;;;5087081;28;20091;-70
2021/01/10 11:38:37;;;;;;;2.88;2.63;;;;;;;;;;5085940;28;20043;-70
2021/01/10 11:41:07;;;;;;;3.25;2.45;;;;;;;;;;5087647;28;20040;-70
2021/01/10 11:43:34;;;;;;;2.95;2.58;;;;;;;;;;5087660;28;20024;-69
2021/01/10 11:46:00;;;;;;;2.95;2.70;;;;;;;;;;5088375;28;20031;-70
2021/01/10 11:48:26;;;;;;;3.75;2.55;;;;;;;;;;5087809;28;20103;-70
2021/01/10 11:50:52;;;;;;;3.05;2.67;;;;;;;;;;5087188;28;20111;-70
2021/01/10 11:53:18;;;;;;;2.67;2.47;;;;;;;;;;5088505;28;20039;-70
2021/01/10 11:55:44;;;;;;;2.58;2.40;;;;;;;;;;5087379;28;20515;-70
2021/01/10 11:58:11;;;;;;;3.13;2.72;;;;;;;;;;5087584;28;20473;-70
2021/01/10 12:00:38;;;;;;;2.78;2.58;;;;;;;;;;5087947;28;20035;-69
2021/01/10 12:03:04;;;;;;;2.83;2.63;;;;;;;;;;5088703;28;20078;-70
2021/01/10 12:05:30;;;;;;;3.38;3.08;;;;;;;;;;5086285;28;20485;-70
2021/01/10 12:07:56;;;;;;;4.45;4.03;;;;;;;;;;5086675;28;20032;-70
2021/01/10 12:10:22;;;;;;;2.60;2.40;;;;;;;;;;5087598;28;20020;-70
2021/01/10 12:12:48;;;;;;;2.15;1.95;;;;;;;;;;5086739;28;20073;-70
2021/01/10 12:15:15;;;;;;;4.00;3.55;;;;;;;;;;5087607;28;20027;-70
2021/01/10 12:17:41;;;;;;;2.67;2.47;;;;;;;;;;5086326;28;20493;-70
2021/01/10 12:20:07;;;;;;;3.60;3.30;;;;;;;;;;5087561;28;20036;-70
2021/01/10 12:22:33;;;;;;;2.35;2.17;;;;;;;;;;5087162;28;20020;-69
2021/01/10 12:24:59;;;;;;;2.88;2.58;;;;;;;;;;5086803;28;20020;-70
2021/01/10 12:27:25;;;;;;;2.80;2.60;;;;;;;;;;5087778;28;20414;-70
2021/01/10 12:29:51;;;;;;;2.88;2.33;;;;;;;;;;5086574;28;20024;-70
2021/01/10 12:32:17;;;;;;;2.60;2.40;;;;;;;;;;5087684;28;20027;-70
2021/01/10 12:34:44;;;;;;;2.80;2.60;;;;;;;;;;5085447;28;20027;-70
2021/01/10 12:37:10;;;;;;;2.72;2.28;;;;;;;;;;5087783;28;20103;-70
2021/01/10 12:39:36;;;;;;;3.42;2.40;;;;;;;;;;5086340;28;20044;-70
2021/01/10 12:42:02;;;;;;;2.53;2.33;;;;;;;;;;5087471;28;20032;-70
2021/01/10 12:44:28;;;;;;;2.70;2.42;;;;;;;;;;5086455;28;20091;-70
2021/01/10 12:46:54;;;;;;;2.47;2.28;;;;;;;;;;5086968;28;20035;-70
2021/01/10 12:49:20;;;;;;;3.00;2.80;;;;;;;;;;5087768;28;20376;-70
2021/01/10 12:51:46;;;;;;;2.83;2.63;;;;;;;;;;5086213;28;20081;-70
2021/01/10 12:54:12;;;;;;;2.50;2.30;;;;;;;;;;5085921;28;20467;-70
2021/01/10 12:56:38;;;;;;;2.50;2.30;;;;;;;;;;5086711;28;20055;-70
2021/01/10 12:59:04;;;;;;;2.60;2.30;;;;;;;;;;5086880;28;20032;-70
2021/01/10 13:01:34;;;;;;;2.90;2.58;;;;;;;;;;5087005;28;20387;-70
2021/01/10 13:04:00;;;;;;;2.63;2.42;;;;;;;;;;5085902;28;20028;-70
2021/01/10 13:06:26;;;;;;;3.08;2.38;;;;;;;;;;5086268;28;20031;-70
2021/01/10 13:08:52;;;;;;;2.38;2.15;;;;;;;;;;5086862;28;20037;-70
2021/01/10 13:11:22;;;;;;;3.10;2.80;;;;;;;;;;5087008;28;20031;-70
2021/01/10 13:13:51;;;;;;;2.83;2.58;;;;;;;;;;5086553;28;20478;-70
2021/01/10 13:16:17;;;;;;;2.97;2.78;;;;;;;;;;5087421;28;20054;-70
2021/01/10 13:18:43;;;;;;;2.08;1.95;;;;;;;;;;5085845;28;20293;-70
2021/01/10 13:21:09;;;;;;;3.30;2.47;;;;;;;;;;5086860;28;20028;-70
2021/01/10 13:23:35;;;;;;;2.67;2.47;;;;;;;;;;5085772;28;20120;-70
2021/01/10 13:26:01;;;;;;;2.80;2.63;;;;;;;;;;5087431;28;20119;-70
2021/01/10 13:28:27;;;;;;;3.10;2.50;;;;;;;;;;5086553;28;20016;-70
2021/01/10 13:30:54;;;;;;;2.50;2.30;;;;;;;;;;5086494;28;20028;-70
2021/01/10 13:33:20;;;;;;;2.88;2.67;;;;;;;;;;5086765;28;20024;-70
2021/01/10 13:35:46;;;;;;;3.53;2.85;;;;;;;;;;5084846;28;20122;-70
2021/01/10 13:38:12;;;;;;;3.38;3.10;;;;;;;;;;5086271;28;20265;-70
2021/01/10 13:40:38;;;;;;;3.13;2.92;;;;;;;;;;5085996;28;20052;-69
2021/01/10 13:43:04;;;;;;;4.00;2.67;;;;;;;;;;5086615;28;20095;-70
2021/01/10 13:45:31;;;;;;;2.85;2.58;;;;;;;;;;5086469;28;20070;-70
2021/01/10 13:47:57;;;;;;;3.08;2.75;;;;;;;;;;5086255;28;20086;-70
2021/01/10 13:50:23;;;;;;;2.63;2.42;;;;;;;;;;5086961;28;20027;-70
2021/01/10 13:52:50;;;;;;;2.67;2.47;;;;;;;;;;5085520;28;20081;-70
2021/01/10 13:55:16;;;;;;;3.25;2.78;;;;;;;;;;5086807;28;20532;-70
2021/01/10 13:57:42;;;;;;;3.28;2.97;;;;;;;;;;5085824;28;20494;-69
2021/01/10 14:00:16;;;;;;;2.60;2.40;;;;;;;;;;5086720;28;20114;-69
2021/01/10 14:02:42;;;;;;;2.30;2.13;;;;;;;;;;5088060;28;20042;-69
2021/01/10 14:05:09;;;;;;;2.80;2.60;;;;;;;;;;5088499;28;20024;-70
2021/01/10 14:07:35;;;;;;;2.75;2.55;;;;;;;;;;5090032;28;20101;-69
2021/01/10 14:10:03;;;;;;;3.50;3.17;;;;;;;;;;5090303;28;20097;-70
2021/01/10 14:12:29;;;;;;;3.95;3.38;;;;;;;;;;5090653;28;20035;-70
2021/01/10 14:14:55;;;;;;;3.22;2.97;;;;;;;;;;5089541;28;20032;-69
2021/01/10 14:17:21;;;;;;;3.30;3.00;;;;;;;;;;5090337;28;20024;-69
2021/01/10 14:19:47;;;;;;;2.65;2.45;;;;;;;;;;5088905;28;20078;-69
2021/01/10 14:22:13;;;;;;;4.47;3.75;;;;;;;;;;5089697;28;20082;-69
2021/01/10 14:24:39;;;;;;;3.88;3.47;;;;;;;;;;5088583;28;20048;-69
2021/01/10 14:27:06;;;;;;;3.95;3.15;;;;;;;;;;5090098;28;20024;-69
2021/01/10 14:29:32;;;;;;;3.42;3.22;;;;;;;;;;5089956;28;20063;-69
2021/01/10 14:31:58;;;;;;;3.83;3.03;;;;;;;;;;5090001;28;20116;-69
2021/01/10 14:34:28;;;;;;;4.65;4.22;;;;;;;;;;5089652;28;20066;-69
2021/01/10 14:36:55;;;;;;;3.95;3.65;;;;;;;;;;5088930;28;20032;-69
2021/01/10 14:39:22;;;;;;;3.47;3.22;;;;;;;;;;5088900;28;20028;-69
2021/01/10 14:41:48;;;;;;;3.72;3.40;;;;;;;;;;5088467;28;20032;-69
2021/01/10 14:44:14;;;;;;;4.32;3.80;;;;;;;;;;5089078;28;20020;-69
2021/01/10 14:46:41;;;;;;;3.75;3.42;;;;;;;;;;5088047;28;20374;-69